createdAt,value
2022-11-03T00:01:41.097Z,3.15
2022-11-03T00:04:10.281Z,3.00
2022-11-03T00:06:37.580Z,3.50
2022-11-03T00:09:06.623Z,3.20
2022-11-03T00:11:34.676Z,3.20
2022-11-03T00:14:02.395Z,3.00
2022-11-03T00:16:29.088Z,3.15
2022-11-03T00:18:56.170Z,2.90
2022-11-03T00:21:23.148Z,2.78
2022-11-03T00:23:49.935Z,3.03
2022-11-03T00:26:24.454Z,3.00
2022-11-03T00:28:56.778Z,2.72
2022-11-03T00:31:29.135Z,2.70
2022-11-03T00:33:56.405Z,2.70
2022-11-03T00:36:25.706Z,2.55
2022-11-03T00:38:52.680Z,2.83
2022-11-03T00:41:23.126Z,2.72
2022-11-03T00:43:50.775Z,2.63
2022-11-03T00:46:18.624Z,2.60
2022-11-03T00:48:45.318Z,2.90
2022-11-03T00:51:12.879Z,2.95
2022-11-03T00:53:43.199Z,2.50
2022-11-03T00:56:12.308Z,2.85
2022-11-03T00:58:38.941Z,2.85
2022-11-03T01:01:16.088Z,2.58
2022-11-03T01:04:03.440Z,2.60
2022-11-03T01:06:50.616Z,2.40
2022-11-03T01:09:24.487Z,2.72
2022-11-03T01:12:07.793Z,2.50
2022-11-03T01:14:35.666Z,2.70
2022-11-03T01:17:05.933Z,2.80
2022-11-03T01:19:32.628Z,2.35
2022-11-03T01:21:59.294Z,2.92
2022-11-03T01:24:25.924Z,2.90
2022-11-03T01:26:52.669Z,2.70
2022-11-03T01:29:20.080Z,2.50
2022-11-03T01:31:47.105Z,2.30
2022-11-03T01:34:19.029Z,2.55
2022-11-03T01:36:46.192Z,2.72
2022-11-03T01:39:14.530Z,2.47
2022-11-03T01:41:43.152Z,2.45
2022-11-03T01:44:10.687Z,2.60
2022-11-03T01:46:43.832Z,2.50
2022-11-03T01:49:20.473Z,2.53
2022-11-03T01:51:51.325Z,2.42
2022-11-03T01:54:20.691Z,2.55
2022-11-03T01:56:51.667Z,2.30
2022-11-03T01:59:22.129Z,2.33
2022-11-03T02:01:52.339Z,2.60
2022-11-03T02:04:25.383Z,2.30
2022-11-03T02:07:18.299Z,2.45
2022-11-03T02:09:46.542Z,2.45
2022-11-03T02:12:15.605Z,2.40
2022-11-03T02:14:50.934Z,2.35
2022-11-03T02:17:18.271Z,2.60
2022-11-03T02:19:49.334Z,2.53
2022-11-03T02:22:35.112Z,2.45
2022-11-03T02:25:17.007Z,2.28
2022-11-03T02:27:43.967Z,2.75
2022-11-03T02:30:11.392Z,2.53
2022-11-03T02:32:51.339Z,2.25
2022-11-03T02:35:22.985Z,2.20
2022-11-03T02:37:52.043Z,2.33
2022-11-03T02:40:45.917Z,2.63
2022-11-03T02:43:14.483Z,2.30
2022-11-03T02:45:42.039Z,2.55
2022-11-03T02:48:09.244Z,2.70
2022-11-03T02:50:36.006Z,2.65
2022-11-03T02:53:02.971Z,2.42
2022-11-03T02:55:37.513Z,2.55
2022-11-03T02:58:24.572Z,2.53
2022-11-03T03:01:04.759Z,2.15
2022-11-03T03:03:36.111Z,3.85
2022-11-03T03:06:08.446Z,3.15
2022-11-03T03:08:35.928Z,2.88
2022-11-03T03:11:03.396Z,2.33
2022-11-03T03:13:30.016Z,2.60
2022-11-03T03:16:12.265Z,2.70
2022-11-03T03:18:49.108Z,2.60
2022-11-03T03:21:15.754Z,2.60
2022-11-03T03:23:50.666Z,2.42
2022-11-03T03:26:25.242Z,2.53
2022-11-03T03:29:02.044Z,2.67
2022-11-03T03:31:32.891Z,2.60
2022-11-03T03:34:10.258Z,2.53
2022-11-03T03:36:45.376Z,2.60
2022-11-03T03:39:13.900Z,2.55
2022-11-03T03:41:41.587Z,2.38
2022-11-03T03:44:09.136Z,2.42
2022-11-03T03:46:39.324Z,2.50
2022-11-03T03:49:06.481Z,2.38
2022-11-03T03:51:33.870Z,2.50
2022-11-03T03:54:00.865Z,2.25
2022-11-03T03:56:33.377Z,2.30
2022-11-03T03:59:00.131Z,2.63
2022-11-03T04:01:27.043Z,2.30
2022-11-03T04:03:53.886Z,2.20
2022-11-03T04:06:20.535Z,2.40
2022-11-03T04:08:47.281Z,2.42
2022-11-03T04:11:32.539Z,2.10
2022-11-03T04:14:17.811Z,2.58
2022-11-03T04:17:02.926Z,2.40
2022-11-03T04:22:17.560Z,2.40
2022-11-03T04:24:48.647Z,2.33
2022-11-03T04:27:28.785Z,2.15
2022-11-03T04:30:20.878Z,2.20
2022-11-03T04:32:48.886Z,2.55
2022-11-03T04:35:20.299Z,2.40
2022-11-03T04:37:55.820Z,2.55
2022-11-03T04:40:23.118Z,2.28
2022-11-03T04:42:49.837Z,2.20
2022-11-03T04:45:26.306Z,2.20
2022-11-03T04:47:53.989Z,2.35
2022-11-03T04:50:23.108Z,2.28
2022-11-03T04:52:55.823Z,2.40
2022-11-03T04:55:23.002Z,2.50
2022-11-03T04:57:58.741Z,2.50
2022-11-03T05:00:25.387Z,2.40
2022-11-03T05:02:55.851Z,2.42
2022-11-03T05:05:25.701Z,2.67
2022-11-03T05:07:54.329Z,2.45
2022-11-03T05:10:24.960Z,2.53
2022-11-03T05:12:54.046Z,2.58
2022-11-03T05:15:36.668Z,2.35
2022-11-03T05:18:23.501Z,2.33
2022-11-03T05:21:10.734Z,2.22
2022-11-03T05:23:46.860Z,2.28
2022-11-03T05:26:34.568Z,2.70
2022-11-03T05:29:22.912Z,3.30
2022-11-03T05:31:51.654Z,3.05
2022-11-03T05:34:30.590Z,3.10
2022-11-03T05:37:06.729Z,2.65
2022-11-03T05:39:36.336Z,2.60
2022-11-03T05:42:27.285Z,2.97
2022-11-03T05:44:54.044Z,2.58
2022-11-03T05:47:20.669Z,2.55
2022-11-03T05:49:49.169Z,2.50
2022-11-03T05:52:21.067Z,2.55
2022-11-03T05:54:47.806Z,2.28
2022-11-03T05:57:15.273Z,2.65
2022-11-03T05:59:43.891Z,2.53
2022-11-03T06:02:29.226Z,2.50
2022-11-03T06:04:56.054Z,2.70
2022-11-03T06:07:30.768Z,2.30
2022-11-03T06:09:58.524Z,2.42
2022-11-03T06:12:25.955Z,2.90
2022-11-03T06:14:52.994Z,2.75
2022-11-03T06:17:24.693Z,2.78
2022-11-03T06:19:54.429Z,2.55
2022-11-03T06:22:25.001Z,2.45
2022-11-03T06:24:52.653Z,2.92
2022-11-03T06:27:22.647Z,2.50
2022-11-03T06:30:19.930Z,2.53
2022-11-03T06:32:46.686Z,2.67
2022-11-03T06:35:13.965Z,2.65
2022-11-03T06:37:41.186Z,3.05
2022-11-03T06:40:10.573Z,2.80
2022-11-03T06:42:39.816Z,2.85
2022-11-03T06:45:14.603Z,3.00
2022-11-03T06:50:19.867Z,3.40
2022-11-03T06:55:25.474Z,3.42
2022-11-03T06:58:14.646Z,3.50
2022-11-03T07:00:45.853Z,4.82
2022-11-03T07:03:30.789Z,4.80
2022-11-03T07:05:59.202Z,4.10
2022-11-03T07:08:32.344Z,4.00
2022-11-03T07:11:14.415Z,4.13
2022-11-03T07:13:41.630Z,3.45
2022-11-03T07:16:28.446Z,3.40
2022-11-03T07:18:55.940Z,4.47
2022-11-03T07:21:38.235Z,4.07
2022-11-03T07:24:16.986Z,4.00
2022-11-03T07:26:43.686Z,3.83
2022-11-03T07:29:18.585Z,4.30
2022-11-03T07:31:45.472Z,4.00
2022-11-03T07:34:16.661Z,3.83
2022-11-03T07:36:54.406Z,3.70
2022-11-03T07:39:22.834Z,3.92
2022-11-03T07:41:50.415Z,3.60
2022-11-03T07:44:20.889Z,3.70
2022-11-03T07:46:49.058Z,3.80
2022-11-03T07:49:27.224Z,4.10
2022-11-03T07:51:55.351Z,3.83
2022-11-03T07:54:33.500Z,4.18
2022-11-03T07:57:07.953Z,3.63
2022-11-03T07:59:40.903Z,3.75
2022-11-03T08:02:32.608Z,4.10
2022-11-03T08:05:00.172Z,3.78
2022-11-03T08:07:28.087Z,3.88
2022-11-03T08:09:55.247Z,3.78
2022-11-03T08:12:39.051Z,3.72
2022-11-03T08:15:07.275Z,3.90
2022-11-03T08:17:33.954Z,3.60
2022-11-03T08:20:00.664Z,3.80
2022-11-03T08:22:27.400Z,4.18
2022-11-03T08:24:54.131Z,3.38
2022-11-03T08:27:59.135Z,3.58
2022-11-03T08:30:30.895Z,3.70
2022-11-03T08:32:57.533Z,3.22
2022-11-03T08:35:24.220Z,3.40
2022-11-03T08:37:51.380Z,3.72
2022-11-03T08:40:18.772Z,4.38
2022-11-03T08:42:45.425Z,5.90
2022-11-03T08:45:12.095Z,5.05
2022-11-03T08:47:38.954Z,5.65
2022-11-03T08:50:06.205Z,4.97
2022-11-03T08:52:33.166Z,4.65
2022-11-03T08:54:59.787Z,4.50
2022-11-03T08:57:26.472Z,4.47
2022-11-03T08:59:54.906Z,4.65
2022-11-03T09:02:21.956Z,4.30
2022-11-03T09:04:48.607Z,4.80
2022-11-03T09:07:15.355Z,4.10
2022-11-03T09:12:28.797Z,4.50
2022-11-03T09:14:55.583Z,4.53
2022-11-03T09:17:22.293Z,4.78
2022-11-03T09:19:49.041Z,5.00
2022-11-03T09:22:15.817Z,4.50
2022-11-03T09:24:42.694Z,4.80
2022-11-03T09:27:09.986Z,4.80
2022-11-03T09:30:06.391Z,4.80
2022-11-03T09:32:24.391Z,4.90
2022-11-03T09:34:51.183Z,4.20
2022-11-03T09:37:17.877Z,4.65
2022-11-03T09:39:44.553Z,4.50
2022-11-03T09:42:12.617Z,4.47
2022-11-03T09:44:39.379Z,5.05
2022-11-03T09:47:07.095Z,4.35
2022-11-03T09:49:34.692Z,4.20
2022-11-03T09:52:02.448Z,4.63
2022-11-03T09:54:30.165Z,4.50
2022-11-03T09:56:59.014Z,4.40
2022-11-03T09:59:25.652Z,4.40
2022-11-03T10:01:53.888Z,4.20
2022-11-03T10:04:26.116Z,4.38
2022-11-03T10:06:53.224Z,4.30
2022-11-03T10:09:20.802Z,4.45
2022-11-03T10:11:47.902Z,4.00
2022-11-03T10:14:16.440Z,4.13
2022-11-03T10:16:44.014Z,4.35
2022-11-03T10:19:13.680Z,3.80
2022-11-03T10:21:42.035Z,4.00
2022-11-03T10:24:12.772Z,4.18
2022-11-03T10:26:50.775Z,3.90
2022-11-03T10:29:25.311Z,3.80
2022-11-03T10:31:57.173Z,3.78
2022-11-03T10:34:34.643Z,4.00
2022-11-03T10:37:14.741Z,3.85
2022-11-03T10:39:41.387Z,4.22
2022-11-03T10:42:20.690Z,4.57
2022-11-03T10:44:48.179Z,4.55
2022-11-03T10:47:43.081Z,4.80
2022-11-03T10:50:24.017Z,4.70
2022-11-03T10:52:54.395Z,4.55
2022-11-03T10:55:30.582Z,4.15
2022-11-03T10:57:58.327Z,4.20
2022-11-03T11:00:25.485Z,4.40
2022-11-03T11:02:58.630Z,4.38
2022-11-03T11:05:25.343Z,4.30
2022-11-03T11:07:53.828Z,4.18
2022-11-03T11:10:26.411Z,4.30
2022-11-03T11:13:12.421Z,4.50
2022-11-03T11:15:47.883Z,4.68
2022-11-03T11:18:29.957Z,4.10
2022-11-03T11:20:58.373Z,4.43
2022-11-03T11:23:31.546Z,4.40
2022-11-03T11:26:10.363Z,4.50
2022-11-03T11:28:38.690Z,4.25
2022-11-03T11:31:30.010Z,4.15
2022-11-03T11:34:19.262Z,4.20
2022-11-03T11:37:11.148Z,3.97
2022-11-03T11:39:44.659Z,4.22
2022-11-03T11:42:15.806Z,4.20
2022-11-03T11:44:42.508Z,4.10
2022-11-03T11:47:27.623Z,4.03
2022-11-03T11:50:06.682Z,4.22
2022-11-03T11:52:49.232Z,4.35
2022-11-03T11:55:23.301Z,4.00
2022-11-03T11:57:50.735Z,4.00
2022-11-03T12:00:29.993Z,4.10
2022-11-03T12:02:57.156Z,3.75
2022-11-03T12:05:27.830Z,3.75
2022-11-03T12:07:55.037Z,3.72
2022-11-03T12:10:26.317Z,4.15
2022-11-03T12:12:54.620Z,3.97
2022-11-03T12:15:52.692Z,3.97
2022-11-03T12:18:50.646Z,3.95
2022-11-03T12:21:47.133Z,3.58
2022-11-03T12:24:50.207Z,3.67
2022-11-03T12:27:19.672Z,3.70
2022-11-03T12:29:46.496Z,3.95
2022-11-03T12:32:25.968Z,3.70
2022-11-03T12:34:59.931Z,3.90
2022-11-03T12:37:26.556Z,3.72
2022-11-03T12:39:53.237Z,3.67
2022-11-03T12:42:21.197Z,3.72
2022-11-03T12:44:48.107Z,3.83
2022-11-03T12:47:14.741Z,3.80
2022-11-03T12:49:41.412Z,4.53
2022-11-03T12:52:08.757Z,4.30
2022-11-03T12:54:35.868Z,4.10
2022-11-03T12:57:03.102Z,4.03
2022-11-03T12:59:30.409Z,4.03
2022-11-03T13:01:57.606Z,4.10
2022-11-03T13:04:24.708Z,4.15
2022-11-03T13:06:51.687Z,4.32
2022-11-03T13:09:18.658Z,3.83
2022-11-03T13:12:04.332Z,4.00
2022-11-03T13:14:31.228Z,4.05
2022-11-03T13:16:59.543Z,3.95
2022-11-03T13:19:26.292Z,4.00
2022-11-03T13:21:52.980Z,3.88
2022-11-03T13:24:20.309Z,4.10
2022-11-03T13:26:46.957Z,4.40
2022-11-03T13:29:13.604Z,5.13
2022-11-03T13:31:40.337Z,5.25
2022-11-03T13:34:08.428Z,5.18
2022-11-03T13:36:35.121Z,5.28
2022-11-03T13:39:01.795Z,4.88
2022-11-03T13:41:28.435Z,4.90
2022-11-03T13:43:55.083Z,4.88
2022-11-03T13:46:21.860Z,5.00
2022-11-03T13:51:35.536Z,4.70
2022-11-03T13:59:36.814Z,4.85
2022-11-03T14:04:51.272Z,4.70
2022-11-03T14:07:17.949Z,4.57
2022-11-03T14:09:44.562Z,4.80
2022-11-03T14:12:29.764Z,5.00
2022-11-03T14:17:24.715Z,4.43
2022-11-03T14:19:53.158Z,4.45
2022-11-03T14:22:22.061Z,4.53
2022-11-03T14:24:48.834Z,4.35
2022-11-03T14:27:16.204Z,4.50
2022-11-03T14:29:43.837Z,3.83
2022-11-03T14:32:11.541Z,3.70
2022-11-03T14:34:38.567Z,4.07
2022-11-03T14:37:06.007Z,3.72
2022-11-03T14:39:32.764Z,3.72
2022-11-03T14:42:05.188Z,3.92
2022-11-03T14:44:36.673Z,4.07
2022-11-03T14:47:05.687Z,3.90
2022-11-03T14:49:33.262Z,4.18
2022-11-03T14:52:01.835Z,3.80
2022-11-03T14:54:29.844Z,3.88
2022-11-03T14:56:56.935Z,3.70
2022-11-03T14:59:24.157Z,3.55
2022-11-03T15:01:51.926Z,3.78
2022-11-03T15:04:19.072Z,3.65
2022-11-03T15:06:45.959Z,3.83
2022-11-03T15:09:15.634Z,3.67
2022-11-03T15:11:45.575Z,3.70
2022-11-03T15:14:13.001Z,3.63
2022-11-03T15:16:40.067Z,3.25
2022-11-03T15:19:07.880Z,3.40
2022-11-03T15:21:34.848Z,3.65
2022-11-03T15:26:48.416Z,3.33
2022-11-03T15:29:15.161Z,3.42
2022-11-03T15:31:47.214Z,3.70
2022-11-03T15:34:14.507Z,6.25
2022-11-03T15:36:41.840Z,4.80
2022-11-03T15:39:09.735Z,4.15
2022-11-03T15:41:37.236Z,4.05
2022-11-03T15:45:25.012Z,4.20
2022-11-03T15:47:54.651Z,4.13
2022-11-03T15:51:16.363Z,4.00
2022-11-03T15:54:13.862Z,4.50
2022-11-03T15:56:43.443Z,4.25
2022-11-03T15:59:10.953Z,4.25
2022-11-03T16:01:38.616Z,4.50
2022-11-03T16:04:32.734Z,4.15
2022-11-03T16:07:08.982Z,4.50
2022-11-03T16:09:36.273Z,4.30
2022-11-03T16:12:03.386Z,4.50
2022-11-03T16:14:30.473Z,4.15
2022-11-03T16:16:57.719Z,4.43
2022-11-03T16:19:24.354Z,4.40
2022-11-03T16:21:51.803Z,4.35
2022-11-03T16:24:18.657Z,4.60
2022-11-03T16:26:45.385Z,4.75
2022-11-03T16:29:12.114Z,4.95
2022-11-03T16:31:39.127Z,4.30
2022-11-03T16:34:05.793Z,4.90
2022-11-03T16:36:32.471Z,4.40
2022-11-03T16:38:59.089Z,4.75
2022-11-03T16:41:25.759Z,4.40
2022-11-03T16:43:52.456Z,4.53
2022-11-03T16:46:19.153Z,4.78
2022-11-03T16:48:45.881Z,4.97
2022-11-03T16:51:12.570Z,4.72
2022-11-03T16:53:39.294Z,4.85
2022-11-03T16:56:06.178Z,4.95
2022-11-03T16:58:32.900Z,4.70
2022-11-03T17:00:59.689Z,5.50
2022-11-03T17:03:26.371Z,5.20
2022-11-03T17:05:53.109Z,4.82
2022-11-03T17:08:46.803Z,5.18
2022-11-03T17:11:06.679Z,5.03
2022-11-03T17:13:33.369Z,5.28
2022-11-03T17:16:00.031Z,5.00
2022-11-03T17:18:26.743Z,5.20
2022-11-03T17:20:53.429Z,5.13
2022-11-03T17:23:21.405Z,4.90
2022-11-03T17:25:50.148Z,5.00
2022-11-03T17:28:19.028Z,5.10
2022-11-03T17:30:45.784Z,5.22
2022-11-03T17:33:16.034Z,5.75
2022-11-03T17:35:43.608Z,5.00
2022-11-03T17:38:14.296Z,4.95
2022-11-03T17:40:46.065Z,5.35
2022-11-03T17:43:19.645Z,4.95
2022-11-03T17:45:46.411Z,4.88
2022-11-03T17:48:13.246Z,4.80
2022-11-03T17:50:46.082Z,5.00
2022-11-03T17:53:21.478Z,5.55
2022-11-03T17:56:08.773Z,5.30
2022-11-03T17:58:43.166Z,5.00
2022-11-03T18:04:24.887Z,4.88
2022-11-03T18:06:51.745Z,5.20
2022-11-03T18:09:18.486Z,5.43
2022-11-03T18:12:03.974Z,5.20
2022-11-03T18:14:30.815Z,5.43
2022-11-03T18:16:58.064Z,5.50
2022-11-03T18:19:24.788Z,5.55
2022-11-03T18:21:51.519Z,5.50
2022-11-03T18:24:19.863Z,5.28
2022-11-03T18:26:46.613Z,5.07
2022-11-03T18:29:13.314Z,5.38
2022-11-03T18:31:43.318Z,5.50
2022-11-03T18:34:14.457Z,5.53
2022-11-03T18:36:41.562Z,5.50
2022-11-03T18:39:11.727Z,5.40
2022-11-03T18:41:41.339Z,5.20
2022-11-03T18:44:28.875Z,5.47
2022-11-03T18:46:56.379Z,5.43
2022-11-03T18:49:24.135Z,5.85
2022-11-03T18:51:59.162Z,5.13
2022-11-03T18:54:31.541Z,5.28
2022-11-03T18:56:58.522Z,5.30
2022-11-03T18:59:28.122Z,5.20
2022-11-03T19:01:55.162Z,5.43
2022-11-03T19:04:22.021Z,4.90
2022-11-03T19:06:50.366Z,5.35
2022-11-03T19:09:22.694Z,5.70
2022-11-03T19:11:50.039Z,5.90
2022-11-03T19:14:23.114Z,5.68
2022-11-03T19:17:17.005Z,6.28
2022-11-03T19:19:39.685Z,5.90
2022-11-03T19:22:14.550Z,6.65
2022-11-03T19:24:42.700Z,6.88
2022-11-03T19:27:22.951Z,6.47
2022-11-03T19:29:49.747Z,6.60
2022-11-03T19:32:21.065Z,6.70
2022-11-03T19:34:52.499Z,6.25
2022-11-03T19:37:19.187Z,6.63
2022-11-03T19:39:45.808Z,7.10
2022-11-03T19:42:36.925Z,6.53
2022-11-03T19:45:06.365Z,6.53
2022-11-03T19:47:39.706Z,6.68
2022-11-03T19:50:21.027Z,6.53
2022-11-03T19:52:51.014Z,6.40
2022-11-03T19:55:18.922Z,6.72
2022-11-03T19:57:45.581Z,9.50
2022-11-03T20:00:17.487Z,8.23
2022-11-03T20:02:44.740Z,7.68
2022-11-03T20:05:12.752Z,7.07
2022-11-03T20:07:40.777Z,7.32
2022-11-03T20:10:17.476Z,7.30
2022-11-03T20:12:45.316Z,7.18
2022-11-03T20:15:17.311Z,7.15
2022-11-03T20:17:45.760Z,7.45
2022-11-03T20:20:17.188Z,7.72
2022-11-03T20:22:47.554Z,6.78
2022-11-03T20:25:23.410Z,7.20
2022-11-03T20:27:50.831Z,8.25
2022-11-03T20:30:19.564Z,7.30
2022-11-03T20:32:47.181Z,7.38
2022-11-03T20:35:23.016Z,6.78
2022-11-03T20:37:52.996Z,7.15
2022-11-03T20:40:23.501Z,7.05
2022-11-03T20:42:52.209Z,7.30
2022-11-03T20:45:21.121Z,7.57
2022-11-03T20:47:48.474Z,7.18
2022-11-03T20:50:16.812Z,7.30
2022-11-03T20:52:44.094Z,6.97
2022-11-03T20:55:22.166Z,7.35
2022-11-03T20:57:50.115Z,6.90
2022-11-03T21:00:31.831Z,7.22
2022-11-03T21:02:58.747Z,7.10
2022-11-03T21:05:28.775Z,6.80
2022-11-03T21:07:55.714Z,7.43
2022-11-03T21:10:23.720Z,6.80
2022-11-03T21:12:51.542Z,6.75
2022-11-03T21:16:03.628Z,7.18
2022-11-03T21:18:48.110Z,7.15
2022-11-03T21:21:20.546Z,6.72
2022-11-03T21:23:47.892Z,6.97
2022-11-03T21:26:14.524Z,6.53
2022-11-03T21:28:41.182Z,7.28
2022-11-03T21:31:12.748Z,7.10
2022-11-03T21:33:40.171Z,6.55
2022-11-03T21:36:07.329Z,7.22
2022-11-03T21:38:33.933Z,7.00
2022-11-03T21:41:20.545Z,6.82
2022-11-03T21:44:06.330Z,6.72
2022-11-03T21:46:33.037Z,7.18
2022-11-03T21:49:17.973Z,6.97
2022-11-03T21:51:44.642Z,12.70
2022-11-03T21:54:11.274Z,15.32
2022-11-03T21:56:37.925Z,12.50
2022-11-03T21:59:04.638Z,10.13
2022-11-03T22:01:31.532Z,9.10
2022-11-03T22:04:00.100Z,7.75
2022-11-03T22:06:26.729Z,7.85
2022-11-03T22:08:53.569Z,8.10
2022-11-03T22:11:23.057Z,8.05
2022-11-03T22:13:50.822Z,7.65
2022-11-03T22:16:36.098Z,8.13
2022-11-03T22:19:25.510Z,7.78
2022-11-03T22:22:12.224Z,7.45
2022-11-03T22:24:57.994Z,7.68
2022-11-03T22:27:25.321Z,7.38
2022-11-03T22:30:11.124Z,7.82
2022-11-03T22:32:38.324Z,7.68
2022-11-03T22:35:24.554Z,7.28
2022-11-03T22:38:19.171Z,7.53
2022-11-03T22:41:05.955Z,7.47
2022-11-03T22:43:51.229Z,7.45
2022-11-03T22:46:18.105Z,7.35
2022-11-03T22:48:44.833Z,7.25
2022-11-03T22:51:14.672Z,6.80
2022-11-03T22:54:01.161Z,7.32
2022-11-03T22:56:29.549Z,7.53
2022-11-03T22:58:56.889Z,6.65
2022-11-03T23:01:28.804Z,7.05
2022-11-03T23:03:56.368Z,6.90
2022-11-03T23:06:27.880Z,6.78
2022-11-03T23:08:55.279Z,7.40
2022-11-03T23:11:24.686Z,6.60
2022-11-03T23:13:58.359Z,7.00
2022-11-03T23:16:27.611Z,7.28
2022-11-03T23:19:13.218Z,6.80
2022-11-03T23:21:40.182Z,6.75
2022-11-03T23:24:26.020Z,6.85
2022-11-03T23:26:52.894Z,6.53
2022-11-03T23:29:19.520Z,7.00
2022-11-03T23:31:46.683Z,7.15
2022-11-03T23:34:14.421Z,6.82
2022-11-03T23:36:41.145Z,6.95
2022-11-03T23:39:08.396Z,6.78
2022-11-03T23:41:35.199Z,6.70
2022-11-03T23:44:01.851Z,6.65
2022-11-03T23:46:47.502Z,7.05
2022-11-03T23:49:14.801Z,6.97
2022-11-03T23:51:42.161Z,6.63
2022-11-03T23:54:10.484Z,6.63
2022-11-03T23:57:00.347Z,13.27
2022-11-03T23:59:27.746Z,16.52
